sensor_id;sensor_type;location;lat;lon;timestamp;temperature;humidity
59075;DHT22;44860;53.020;6.738;2024-02-15T00:00:44;11.50;99.90
59075;DHT22;44860;53.020;6.738;2024-02-15T00:03:10;11.50;99.90
59075;DHT22;44860;53.020;6.738;2024-02-15T00:05:39;11.50;99.90
59075;DHT22;44860;53.020;6.738;2024-02-15T00:08:05;11.50;99.90
59075;DHT22;44860;53.020;6.738;2024-02-15T00:10:31;11.50;99.90
59075;DHT22;44860;53.020;6.738;2024-02-15T00:12:58;11.50;99.90
59075;DHT22;44860;53.020;6.738;2024-02-15T00:15:24;11.50;99.90
59075;DHT22;44860;53.020;6.738;2024-02-15T00:17:50;11.50;99.90
59075;DHT22;44860;53.020;6.738;2024-02-15T00:20:17;11.50;99.90
59075;DHT22;44860;53.020;6.738;2024-02-15T00:22:43;11.50;99.90
59075;DHT22;44860;53.020;6.738;2024-02-15T00:25:09;11.50;99.90
59075;DHT22;44860;53.020;6.738;2024-02-15T00:27:36;11.40;99.90
59075;DHT22;44860;53.020;6.738;2024-02-15T00:30:03;11.50;99.90
59075;DHT22;44860;53.020;6.738;2024-02-15T00:32:33;11.40;99.90
59075;DHT22;44860;53.020;6.738;2024-02-15T00:34:59;11.50;99.90
59075;DHT22;44860;53.020;6.738;2024-02-15T00:37:24;11.50;99.90
59075;DHT22;44860;53.020;6.738;2024-02-15T00:39:50;11.40;99.90
59075;DHT22;44860;53.020;6.738;2024-02-15T00:42:16;11.50;99.90
59075;DHT22;44860;53.020;6.738;2024-02-15T00:44:42;11.40;99.90
59075;DHT22;44860;53.020;6.738;2024-02-15T00:47:09;11.50;99.90
59075;DHT22;44860;53.020;6.738;2024-02-15T00:49:35;11.50;99.90
59075;DHT22;44860;53.020;6.738;2024-02-15T00:52:01;11.40;99.90
59075;DHT22;44860;53.020;6.738;2024-02-15T00:54:27;11.50;99.90
59075;DHT22;44860;53.020;6.738;2024-02-15T00:56:52;11.50;99.90
59075;DHT22;44860;53.020;6.738;2024-02-15T00:59:18;11.40;99.90
59075;DHT22;44860;53.020;6.738;2024-02-15T01:01:44;11.50;99.90
59075;DHT22;44860;53.020;6.738;2024-02-15T01:04:10;11.50;99.90
59075;DHT22;44860;53.020;6.738;2024-02-15T01:06:36;11.50;99.90
59075;DHT22;44860;53.020;6.738;2024-02-15T01:09:02;11.40;99.90
59075;DHT22;44860;53.020;6.738;2024-02-15T01:11:29;11.40;99.90
59075;DHT22;44860;53.020;6.738;2024-02-15T01:13:57;11.40;99.90
59075;DHT22;44860;53.020;6.738;2024-02-15T01:16:24;11.50;99.90
59075;DHT22;44860;53.020;6.738;2024-02-15T01:18:50;11.40;99.90
59075;DHT22;44860;53.020;6.738;2024-02-15T01:21:16;11.40;99.90
59075;DHT22;44860;53.020;6.738;2024-02-15T01:23:42;11.50;99.90
59075;DHT22;44860;53.020;6.738;2024-02-15T01:26:09;11.40;99.90
59075;DHT22;44860;53.020;6.738;2024-02-15T01:28:37;11.40;99.90
59075;DHT22;44860;53.020;6.738;2024-02-15T01:31:03;11.40;99.90
59075;DHT22;44860;53.020;6.738;2024-02-15T01:33:29;11.40;99.90
59075;DHT22;44860;53.020;6.738;2024-02-15T01:35:54;11.40;99.90
59075;DHT22;44860;53.020;6.738;2024-02-15T01:38:21;11.40;99.90
59075;DHT22;44860;53.020;6.738;2024-02-15T01:40:47;11.40;99.90
59075;DHT22;44860;53.020;6.738;2024-02-15T01:43:14;11.50;99.90
59075;DHT22;44860;53.020;6.738;2024-02-15T01:45:39;11.40;99.90
59075;DHT22;44860;53.020;6.738;2024-02-15T01:48:06;11.40;99.90
59075;DHT22;44860;53.020;6.738;2024-02-15T01:50:33;11.50;99.90
59075;DHT22;44860;53.020;6.738;2024-02-15T01:52:59;11.40;99.90
59075;DHT22;44860;53.020;6.738;2024-02-15T01:55:26;11.50;99.90
59075;DHT22;44860;53.020;6.738;2024-02-15T01:57:52;11.40;99.90
59075;DHT22;44860;53.020;6.738;2024-02-15T02:00:19;11.50;99.90
59075;DHT22;44860;53.020;6.738;2024-02-15T02:02:45;11.50;99.90
59075;DHT22;44860;53.020;6.738;2024-02-15T02:05:12;11.50;99.90
59075;DHT22;44860;53.020;6.738;2024-02-15T02:07:38;11.50;99.90
59075;DHT22;44860;53.020;6.738;2024-02-15T02:10:04;11.50;99.90
59075;DHT22;44860;53.020;6.738;2024-02-15T02:12:31;11.50;99.90
59075;DHT22;44860;53.020;6.738;2024-02-15T02:14:57;11.50;99.90
59075;DHT22;44860;53.020;6.738;2024-02-15T02:17:23;11.50;99.90
59075;DHT22;44860;53.020;6.738;2024-02-15T02:19:49;11.50;99.90
59075;DHT22;44860;53.020;6.738;2024-02-15T02:22:19;11.50;99.90
59075;DHT22;44860;53.020;6.738;2024-02-15T02:25:07;11.50;99.90
59075;DHT22;44860;53.020;6.738;2024-02-15T02:27:36;11.50;99.90
59075;DHT22;44860;53.020;6.738;2024-02-15T02:30:13;11.50;99.90
59075;DHT22;44860;53.020;6.738;2024-02-15T02:32:44;11.50;99.90
59075;DHT22;44860;53.020;6.738;2024-02-15T02:35:10;11.50;99.90
59075;DHT22;44860;53.020;6.738;2024-02-15T02:37:40;11.50;99.90
59075;DHT22;44860;53.020;6.738;2024-02-15T02:40:07;11.50;99.90
59075;DHT22;44860;53.020;6.738;2024-02-15T02:42:54;11.50;99.90
59075;DHT22;44860;53.020;6.738;2024-02-15T02:45:25;11.50;99.90
59075;DHT22;44860;53.020;6.738;2024-02-15T02:47:54;11.50;99.90
59075;DHT22;44860;53.020;6.738;2024-02-15T02:50:23;11.50;99.90
59075;DHT22;44860;53.020;6.738;2024-02-15T02:52:50;11.50;99.90
59075;DHT22;44860;53.020;6.738;2024-02-15T02:55:16;11.50;99.90
59075;DHT22;44860;53.020;6.738;2024-02-15T02:57:41;11.50;99.90
59075;DHT22;44860;53.020;6.738;2024-02-15T03:00:10;11.50;99.90
59075;DHT22;44860;53.020;6.738;2024-02-15T03:02:42;11.50;99.90
59075;DHT22;44860;53.020;6.738;2024-02-15T03:05:09;11.50;99.90
59075;DHT22;44860;53.020;6.738;2024-02-15T03:07:36;11.50;99.90
59075;DHT22;44860;53.020;6.738;2024-02-15T03:10:03;11.50;99.90
59075;DHT22;44860;53.020;6.738;2024-02-15T03:12:39;11.50;99.90
59075;DHT22;44860;53.020;6.738;2024-02-15T03:15:06;11.50;99.90
59075;DHT22;44860;53.020;6.738;2024-02-15T03:17:38;11.50;99.90
59075;DHT22;44860;53.020;6.738;2024-02-15T03:20:06;11.50;99.90
59075;DHT22;44860;53.020;6.738;2024-02-15T03:22:37;11.50;99.90
59075;DHT22;44860;53.020;6.738;2024-02-15T03:25:06;11.50;99.90
59075;DHT22;44860;53.020;6.738;2024-02-15T03:27:36;11.50;99.90
59075;DHT22;44860;53.020;6.738;2024-02-15T03:30:03;11.50;99.90
59075;DHT22;44860;53.020;6.738;2024-02-15T03:32:29;11.50;99.90
59075;DHT22;44860;53.020;6.738;2024-02-15T03:34:55;11.60;99.90
59075;DHT22;44860;53.020;6.738;2024-02-15T03:37:21;11.60;99.90
59075;DHT22;44860;53.020;6.738;2024-02-15T03:39:46;11.50;99.90
59075;DHT22;44860;53.020;6.738;2024-02-15T03:42:12;11.60;99.90
59075;DHT22;44860;53.020;6.738;2024-02-15T03:44:38;11.60;99.90
59075;DHT22;44860;53.020;6.738;2024-02-15T03:47:04;11.60;99.90
59075;DHT22;44860;53.020;6.738;2024-02-15T03:49:30;11.60;99.90
59075;DHT22;44860;53.020;6.738;2024-02-15T03:51:57;11.60;99.90
59075;DHT22;44860;53.020;6.738;2024-02-15T03:54:25;11.60;99.90
59075;DHT22;44860;53.020;6.738;2024-02-15T03:56:51;11.60;99.90
59075;DHT22;44860;53.020;6.738;2024-02-15T03:59:21;11.60;99.90
59075;DHT22;44860;53.020;6.738;2024-02-15T04:01:55;11.60;99.90
59075;DHT22;44860;53.020;6.738;2024-02-15T04:04:21;11.60;99.90
59075;DHT22;44860;53.020;6.738;2024-02-15T04:06:51;11.60;99.90
59075;DHT22;44860;53.020;6.738;2024-02-15T04:09:17;11.60;99.90
59075;DHT22;44860;53.020;6.738;2024-02-15T04:11:52;11.60;99.90
59075;DHT22;44860;53.020;6.738;2024-02-15T04:14:22;11.60;99.90
59075;DHT22;44860;53.020;6.738;2024-02-15T04:16:48;11.60;99.90
59075;DHT22;44860;53.020;6.738;2024-02-15T04:19:14;11.60;99.90
59075;DHT22;44860;53.020;6.738;2024-02-15T04:21:40;11.70;99.90
59075;DHT22;44860;53.020;6.738;2024-02-15T04:24:06;11.70;99.90
59075;DHT22;44860;53.020;6.738;2024-02-15T04:26:32;11.70;99.90
59075;DHT22;44860;53.020;6.738;2024-02-15T04:28:59;11.70;99.90
59075;DHT22;44860;53.020;6.738;2024-02-15T04:31:25;11.70;99.90
59075;DHT22;44860;53.020;6.738;2024-02-15T04:33:54;11.70;99.90
59075;DHT22;44860;53.020;6.738;2024-02-15T04:36:20;11.70;99.90
59075;DHT22;44860;53.020;6.738;2024-02-15T04:38:52;11.70;99.90
59075;DHT22;44860;53.020;6.738;2024-02-15T04:41:18;11.70;99.90
59075;DHT22;44860;53.020;6.738;2024-02-15T04:43:51;11.70;99.90
59075;DHT22;44860;53.020;6.738;2024-02-15T04:46:20;11.70;99.90
59075;DHT22;44860;53.020;6.738;2024-02-15T04:48:50;11.80;99.90
59075;DHT22;44860;53.020;6.738;2024-02-15T04:51:16;11.80;99.90
59075;DHT22;44860;53.020;6.738;2024-02-15T04:53:43;11.80;99.90
59075;DHT22;44860;53.020;6.738;2024-02-15T04:56:08;11.80;99.90
59075;DHT22;44860;53.020;6.738;2024-02-15T04:58:43;11.80;99.90
59075;DHT22;44860;53.020;6.738;2024-02-15T05:01:15;11.80;99.90
59075;DHT22;44860;53.020;6.738;2024-02-15T05:03:42;11.80;99.90
59075;DHT22;44860;53.020;6.738;2024-02-15T05:06:08;11.80;99.90
59075;DHT22;44860;53.020;6.738;2024-02-15T05:08:34;11.80;99.90
59075;DHT22;44860;53.020;6.738;2024-02-15T05:11:11;11.90;99.90
59075;DHT22;44860;53.020;6.738;2024-02-15T05:13:46;11.90;99.90
59075;DHT22;44860;53.020;6.738;2024-02-15T05:16:12;11.90;99.90
59075;DHT22;44860;53.020;6.738;2024-02-15T05:18:38;11.90;99.90
59075;DHT22;44860;53.020;6.738;2024-02-15T05:21:06;11.90;99.90
59075;DHT22;44860;53.020;6.738;2024-02-15T05:23:38;11.90;99.90
59075;DHT22;44860;53.020;6.738;2024-02-15T05:26:09;11.90;99.90
59075;DHT22;44860;53.020;6.738;2024-02-15T05:28:35;11.90;99.90
59075;DHT22;44860;53.020;6.738;2024-02-15T05:31:14;11.90;99.90
59075;DHT22;44860;53.020;6.738;2024-02-15T05:33:43;11.90;99.90
59075;DHT22;44860;53.020;6.738;2024-02-15T05:36:17;11.90;99.90
59075;DHT22;44860;53.020;6.738;2024-02-15T05:38:47;11.90;99.90
59075;DHT22;44860;53.020;6.738;2024-02-15T05:41:14;11.90;99.90
59075;DHT22;44860;53.020;6.738;2024-02-15T05:43:40;11.90;99.90
59075;DHT22;44860;53.020;6.738;2024-02-15T05:46:09;11.90;99.90
59075;DHT22;44860;53.020;6.738;2024-02-15T05:48:36;11.90;99.90
59075;DHT22;44860;53.020;6.738;2024-02-15T05:51:03;11.90;99.90
59075;DHT22;44860;53.020;6.738;2024-02-15T05:53:29;11.90;99.90
59075;DHT22;44860;53.020;6.738;2024-02-15T05:55:56;11.90;99.90
59075;DHT22;44860;53.020;6.738;2024-02-15T05:58:23;11.90;99.90
59075;DHT22;44860;53.020;6.738;2024-02-15T06:00:50;11.90;99.90
59075;DHT22;44860;53.020;6.738;2024-02-15T06:03:22;11.90;99.90
59075;DHT22;44860;53.020;6.738;2024-02-15T06:05:51;11.90;99.90
59075;DHT22;44860;53.020;6.738;2024-02-15T06:08:17;11.90;99.90
59075;DHT22;44860;53.020;6.738;2024-02-15T06:10:45;12.00;99.90
59075;DHT22;44860;53.020;6.738;2024-02-15T06:13:12;12.00;99.90
59075;DHT22;44860;53.020;6.738;2024-02-15T06:15:38;12.00;99.90
59075;DHT22;44860;53.020;6.738;2024-02-15T06:18:03;12.00;99.90
59075;DHT22;44860;53.020;6.738;2024-02-15T06:20:34;12.00;99.90
59075;DHT22;44860;53.020;6.738;2024-02-15T06:23:01;12.00;99.90
59075;DHT22;44860;53.020;6.738;2024-02-15T06:25:31;12.00;99.90
59075;DHT22;44860;53.020;6.738;2024-02-15T06:27:57;12.00;99.90
59075;DHT22;44860;53.020;6.738;2024-02-15T06:30:28;12.00;99.90
59075;DHT22;44860;53.020;6.738;2024-02-15T06:33:12;12.00;99.90
59075;DHT22;44860;53.020;6.738;2024-02-15T06:35:56;12.00;99.90
59075;DHT22;44860;53.020;6.738;2024-02-15T06:38:40;12.00;99.90
59075;DHT22;44860;53.020;6.738;2024-02-15T06:41:25;12.10;99.90
59075;DHT22;44860;53.020;6.738;2024-02-15T06:43:51;12.10;99.90
59075;DHT22;44860;53.020;6.738;2024-02-15T06:46:17;12.10;99.90
59075;DHT22;44860;53.020;6.738;2024-02-15T06:48:44;12.00;99.90
59075;DHT22;44860;53.020;6.738;2024-02-15T06:51:14;12.10;99.90
59075;DHT22;44860;53.020;6.738;2024-02-15T06:53:40;12.10;99.90
59075;DHT22;44860;53.020;6.738;2024-02-15T06:56:09;12.10;99.90
59075;DHT22;44860;53.020;6.738;2024-02-15T06:58:38;12.10;99.90
59075;DHT22;44860;53.020;6.738;2024-02-15T07:01:06;12.10;99.90
59075;DHT22;44860;53.020;6.738;2024-02-15T07:03:31;12.10;99.90
59075;DHT22;44860;53.020;6.738;2024-02-15T07:06:01;12.10;99.90
59075;DHT22;44860;53.020;6.738;2024-02-15T07:08:28;12.10;99.90
59075;DHT22;44860;53.020;6.738;2024-02-15T07:10:55;12.10;99.90
59075;DHT22;44860;53.020;6.738;2024-02-15T07:13:20;12.10;99.90
59075;DHT22;44860;53.020;6.738;2024-02-15T07:15:46;12.10;99.90
59075;DHT22;44860;53.020;6.738;2024-02-15T07:18:12;12.10;99.90
59075;DHT22;44860;53.020;6.738;2024-02-15T07:20:41;12.10;99.90
59075;DHT22;44860;53.020;6.738;2024-02-15T07:23:07;12.00;99.90
59075;DHT22;44860;53.020;6.738;2024-02-15T07:25:33;12.10;99.90
59075;DHT22;44860;53.020;6.738;2024-02-15T07:27:59;12.10;99.90
59075;DHT22;44860;53.020;6.738;2024-02-15T07:30:24;12.10;99.90
59075;DHT22;44860;53.020;6.738;2024-02-15T07:32:50;12.10;99.90
59075;DHT22;44860;53.020;6.738;2024-02-15T07:35:16;12.10;99.90
59075;DHT22;44860;53.020;6.738;2024-02-15T07:37:52;12.10;99.90
59075;DHT22;44860;53.020;6.738;2024-02-15T07:40:21;12.10;99.90
59075;DHT22;44860;53.020;6.738;2024-02-15T07:42:48;12.10;99.90
59075;DHT22;44860;53.020;6.738;2024-02-15T07:45:14;12.10;99.90
59075;DHT22;44860;53.020;6.738;2024-02-15T07:47:40;12.10;99.90
59075;DHT22;44860;53.020;6.738;2024-02-15T07:50:06;12.10;99.90
59075;DHT22;44860;53.020;6.738;2024-02-15T07:52:35;12.10;99.90
59075;DHT22;44860;53.020;6.738;2024-02-15T07:55:01;12.10;99.90
59075;DHT22;44860;53.020;6.738;2024-02-15T07:57:34;12.00;99.90
59075;DHT22;44860;53.020;6.738;2024-02-15T08:00:00;12.10;99.90
59075;DHT22;44860;53.020;6.738;2024-02-15T08:02:25;12.10;99.90
59075;DHT22;44860;53.020;6.738;2024-02-15T08:04:54;12.10;99.90
59075;DHT22;44860;53.020;6.738;2024-02-15T08:07:20;12.10;99.90
59075;DHT22;44860;53.020;6.738;2024-02-15T08:09:46;12.10;99.90
59075;DHT22;44860;53.020;6.738;2024-02-15T08:12:12;12.10;99.90
59075;DHT22;44860;53.020;6.738;2024-02-15T08:14:38;12.10;99.90
59075;DHT22;44860;53.020;6.738;2024-02-15T08:17:05;12.10;99.90
59075;DHT22;44860;53.020;6.738;2024-02-15T08:19:33;12.10;99.90
59075;DHT22;44860;53.020;6.738;2024-02-15T08:22:05;12.10;99.90
59075;DHT22;44860;53.020;6.738;2024-02-15T08:24:31;12.10;99.90
59075;DHT22;44860;53.020;6.738;2024-02-15T08:26:56;12.10;99.90
59075;DHT22;44860;53.020;6.738;2024-02-15T08:29:25;12.10;99.90
59075;DHT22;44860;53.020;6.738;2024-02-15T08:31:50;12.10;99.90
59075;DHT22;44860;53.020;6.738;2024-02-15T08:34:16;12.20;99.90
59075;DHT22;44860;53.020;6.738;2024-02-15T08:36:44;12.10;99.90
59075;DHT22;44860;53.020;6.738;2024-02-15T08:39:10;12.10;99.90
59075;DHT22;44860;53.020;6.738;2024-02-15T08:41:38;12.10;99.90
59075;DHT22;44860;53.020;6.738;2024-02-15T08:44:04;12.20;99.90
59075;DHT22;44860;53.020;6.738;2024-02-15T08:46:34;12.20;99.90
59075;DHT22;44860;53.020;6.738;2024-02-15T08:49:01;12.10;99.90
59075;DHT22;44860;53.020;6.738;2024-02-15T08:51:29;12.10;99.90
59075;DHT22;44860;53.020;6.738;2024-02-15T08:53:56;12.20;99.90
59075;DHT22;44860;53.020;6.738;2024-02-15T08:56:21;12.10;99.90
59075;DHT22;44860;53.020;6.738;2024-02-15T08:58:49;12.10;99.90
59075;DHT22;44860;53.020;6.738;2024-02-15T09:01:14;12.10;99.90
59075;DHT22;44860;53.020;6.738;2024-02-15T09:03:40;12.10;99.90
59075;DHT22;44860;53.020;6.738;2024-02-15T09:06:06;12.10;99.90
59075;DHT22;44860;53.020;6.738;2024-02-15T09:08:33;12.10;99.90
59075;DHT22;44860;53.020;6.738;2024-02-15T09:10:59;12.20;99.90
59075;DHT22;44860;53.020;6.738;2024-02-15T09:13:25;12.20;99.90
59075;DHT22;44860;53.020;6.738;2024-02-15T09:15:51;12.20;99.90
59075;DHT22;44860;53.020;6.738;2024-02-15T09:18:16;12.20;99.90
59075;DHT22;44860;53.020;6.738;2024-02-15T09:20:48;12.10;99.90
59075;DHT22;44860;53.020;6.738;2024-02-15T09:23:19;12.10;99.90
59075;DHT22;44860;53.020;6.738;2024-02-15T09:25:45;12.20;99.90
59075;DHT22;44860;53.020;6.738;2024-02-15T09:28:11;12.20;99.90
59075;DHT22;44860;53.020;6.738;2024-02-15T09:30:37;12.20;99.90
59075;DHT22;44860;53.020;6.738;2024-02-15T09:33:03;12.10;99.90
59075;DHT22;44860;53.020;6.738;2024-02-15T09:35:30;12.20;99.90
59075;DHT22;44860;53.020;6.738;2024-02-15T09:37:56;12.20;99.90
59075;DHT22;44860;53.020;6.738;2024-02-15T09:40:22;12.20;99.90
59075;DHT22;44860;53.020;6.738;2024-02-15T09:42:52;12.20;99.90
59075;DHT22;44860;53.020;6.738;2024-02-15T09:45:18;12.20;99.90
59075;DHT22;44860;53.020;6.738;2024-02-15T09:47:46;12.20;99.90
59075;DHT22;44860;53.020;6.738;2024-02-15T09:50:16;12.20;99.90
59075;DHT22;44860;53.020;6.738;2024-02-15T09:52:52;12.30;99.90
59075;DHT22;44860;53.020;6.738;2024-02-15T09:55:20;12.20;99.90
59075;DHT22;44860;53.020;6.738;2024-02-15T09:57:49;12.30;99.90
59075;DHT22;44860;53.020;6.738;2024-02-15T10:00:16;12.30;99.90
59075;DHT22;44860;53.020;6.738;2024-02-15T10:02:48;12.30;99.90
59075;DHT22;44860;53.020;6.738;2024-02-15T10:05:16;12.30;99.90
59075;DHT22;44860;53.020;6.738;2024-02-15T10:07:43;12.30;99.90
59075;DHT22;44860;53.020;6.738;2024-02-15T10:10:20;12.40;99.90
59075;DHT22;44860;53.020;6.738;2024-02-15T10:12:46;12.40;99.90
59075;DHT22;44860;53.020;6.738;2024-02-15T10:15:36;12.40;99.90
59075;DHT22;44860;53.020;6.738;2024-02-15T10:20:29;12.40;99.90
59075;DHT22;44860;53.020;6.738;2024-02-15T10:25:27;12.40;99.90
59075;DHT22;44860;53.020;6.738;2024-02-15T10:28:01;12.40;99.90
59075;DHT22;44860;53.020;6.738;2024-02-15T10:30:28;12.50;99.90
59075;DHT22;44860;53.020;6.738;2024-02-15T10:32:55;12.50;99.90
59075;DHT22;44860;53.020;6.738;2024-02-15T10:35:22;12.50;99.90
59075;DHT22;44860;53.020;6.738;2024-02-15T10:37:49;12.50;99.90
59075;DHT22;44860;53.020;6.738;2024-02-15T10:40:19;12.50;99.90
59075;DHT22;44860;53.020;6.738;2024-02-15T10:42:51;12.50;99.90
59075;DHT22;44860;53.020;6.738;2024-02-15T10:45:17;12.60;99.90
59075;DHT22;44860;53.020;6.738;2024-02-15T10:47:46;12.60;99.90
59075;DHT22;44860;53.020;6.738;2024-02-15T10:50:13;12.60;99.90
59075;DHT22;44860;53.020;6.738;2024-02-15T10:52:48;12.60;99.90
59075;DHT22;44860;53.020;6.738;2024-02-15T10:55:25;12.60;99.90
59075;DHT22;44860;53.020;6.738;2024-02-15T10:57:55;12.70;99.90
59075;DHT22;44860;53.020;6.738;2024-02-15T11:00:24;12.70;99.90
59075;DHT22;44860;53.020;6.738;2024-02-15T11:03:03;12.70;99.90
59075;DHT22;44860;53.020;6.738;2024-02-15T11:05:35;12.70;99.90
59075;DHT22;44860;53.020;6.738;2024-02-15T11:08:08;12.80;99.90
59075;DHT22;44860;53.020;6.738;2024-02-15T11:10:39;12.80;99.90
59075;DHT22;44860;53.020;6.738;2024-02-15T11:13:09;12.80;99.90
59075;DHT22;44860;53.020;6.738;2024-02-15T11:18:02;12.80;99.90
59075;DHT22;44860;53.020;6.738;2024-02-15T11:23:02;12.90;99.90
59075;DHT22;44860;53.020;6.738;2024-02-15T11:25:39;12.90;99.90
59075;DHT22;44860;53.020;6.738;2024-02-15T11:30:53;12.90;99.90
59075;DHT22;44860;53.020;6.738;2024-02-15T11:33:31;13.00;99.90
59075;DHT22;44860;53.020;6.738;2024-02-15T11:36:10;13.00;99.90
59075;DHT22;44860;53.020;6.738;2024-02-15T11:38:40;13.00;99.90
59075;DHT22;44860;53.020;6.738;2024-02-15T11:41:10;13.00;99.90
59075;DHT22;44860;53.020;6.738;2024-02-15T11:43:49;13.10;99.90
59075;DHT22;44860;53.020;6.738;2024-02-15T11:46:23;13.10;99.90
59075;DHT22;44860;53.020;6.738;2024-02-15T11:48:54;13.10;99.90
59075;DHT22;44860;53.020;6.738;2024-02-15T11:51:25;13.10;99.90
59075;DHT22;44860;53.020;6.738;2024-02-15T11:54:08;13.10;99.90
59075;DHT22;44860;53.020;6.738;2024-02-15T11:56:56;13.20;99.90
59075;DHT22;44860;53.020;6.738;2024-02-15T11:59:42;13.10;99.90
59075;DHT22;44860;53.020;6.738;2024-02-15T12:02:22;13.10;99.90
59075;DHT22;44860;53.020;6.738;2024-02-15T12:05:06;13.20;99.90
59075;DHT22;44860;53.020;6.738;2024-02-15T12:07:50;13.10;99.90
59075;DHT22;44860;53.020;6.738;2024-02-15T12:10:35;13.10;99.90
59075;DHT22;44860;53.020;6.738;2024-02-15T12:13:19;13.10;99.90
59075;DHT22;44860;53.020;6.738;2024-02-15T12:16:03;13.10;99.90
59075;DHT22;44860;53.020;6.738;2024-02-15T12:18:48;13.10;99.90
59075;DHT22;44860;53.020;6.738;2024-02-15T12:21:24;13.10;99.90
59075;DHT22;44860;53.020;6.738;2024-02-15T12:23:51;13.10;99.90
59075;DHT22;44860;53.020;6.738;2024-02-15T12:26:21;13.10;99.90
59075;DHT22;44860;53.020;6.738;2024-02-15T12:28:53;13.10;99.90
59075;DHT22;44860;53.020;6.738;2024-02-15T12:31:22;13.00;99.90
59075;DHT22;44860;53.020;6.738;2024-02-15T12:34:02;13.00;99.90
59075;DHT22;44860;53.020;6.738;2024-02-15T12:36:33;13.00;99.90
59075;DHT22;44860;53.020;6.738;2024-02-15T12:39:03;13.00;99.90
59075;DHT22;44860;53.020;6.738;2024-02-15T12:41:39;13.00;99.90
59075;DHT22;44860;53.020;6.738;2024-02-15T12:44:08;13.00;99.90
59075;DHT22;44860;53.020;6.738;2024-02-15T12:46:36;13.00;99.90
59075;DHT22;44860;53.020;6.738;2024-02-15T12:49:17;13.00;99.90
59075;DHT22;44860;53.020;6.738;2024-02-15T12:51:54;13.00;99.90
59075;DHT22;44860;53.020;6.738;2024-02-15T12:54:21;13.00;99.90
59075;DHT22;44860;53.020;6.738;2024-02-15T12:56:47;12.90;99.90
59075;DHT22;44860;53.020;6.738;2024-02-15T12:59:18;12.90;99.90
59075;DHT22;44860;53.020;6.738;2024-02-15T13:01:47;12.90;99.90
59075;DHT22;44860;53.020;6.738;2024-02-15T13:04:25;12.90;99.90
59075;DHT22;44860;53.020;6.738;2024-02-15T13:06:51;12.90;99.90
59075;DHT22;44860;53.020;6.738;2024-02-15T13:09:16;12.90;99.90
59075;DHT22;44860;53.020;6.738;2024-02-15T13:11:42;12.90;99.90
59075;DHT22;44860;53.020;6.738;2024-02-15T13:14:11;12.90;99.90
59075;DHT22;44860;53.020;6.738;2024-02-15T13:16:36;12.90;99.90
59075;DHT22;44860;53.020;6.738;2024-02-15T13:19:02;12.90;99.90
59075;DHT22;44860;53.020;6.738;2024-02-15T13:21:29;12.90;99.90
59075;DHT22;44860;53.020;6.738;2024-02-15T13:23:56;12.90;99.90
59075;DHT22;44860;53.020;6.738;2024-02-15T13:26:22;12.90;99.90
59075;DHT22;44860;53.020;6.738;2024-02-15T13:28:52;12.90;99.90
59075;DHT22;44860;53.020;6.738;2024-02-15T13:31:17;12.90;99.90
59075;DHT22;44860;53.020;6.738;2024-02-15T13:33:43;12.90;99.90
59075;DHT22;44860;53.020;6.738;2024-02-15T13:36:09;12.90;99.90
59075;DHT22;44860;53.020;6.738;2024-02-15T13:38:37;12.90;99.90
59075;DHT22;44860;53.020;6.738;2024-02-15T13:41:03;12.90;99.90
59075;DHT22;44860;53.020;6.738;2024-02-15T13:43:29;12.90;99.90
59075;DHT22;44860;53.020;6.738;2024-02-15T13:45:57;12.80;99.90
59075;DHT22;44860;53.020;6.738;2024-02-15T13:48:23;12.80;99.90
59075;DHT22;44860;53.020;6.738;2024-02-15T13:50:53;12.90;99.90
59075;DHT22;44860;53.020;6.738;2024-02-15T13:53:18;12.80;99.90
59075;DHT22;44860;53.020;6.738;2024-02-15T13:55:44;12.80;99.90
59075;DHT22;44860;53.020;6.738;2024-02-15T13:58:10;12.90;99.90
59075;DHT22;44860;53.020;6.738;2024-02-15T14:00:39;12.80;99.90
59075;DHT22;44860;53.020;6.738;2024-02-15T14:03:08;12.90;99.90
59075;DHT22;44860;53.020;6.738;2024-02-15T14:05:35;12.90;99.90
59075;DHT22;44860;53.020;6.738;2024-02-15T14:08:05;12.90;99.90
59075;DHT22;44860;53.020;6.738;2024-02-15T14:10:34;12.90;99.90
59075;DHT22;44860;53.020;6.738;2024-02-15T14:13:04;12.80;99.90
59075;DHT22;44860;53.020;6.738;2024-02-15T14:15:37;12.90;99.90
59075;DHT22;44860;53.020;6.738;2024-02-15T14:18:11;12.90;99.90
59075;DHT22;44860;53.020;6.738;2024-02-15T14:20:39;12.80;99.90
59075;DHT22;44860;53.020;6.738;2024-02-15T14:23:05;12.80;99.90
59075;DHT22;44860;53.020;6.738;2024-02-15T14:25:32;12.80;99.90
59075;DHT22;44860;53.020;6.738;2024-02-15T14:27:58;12.80;99.90
59075;DHT22;44860;53.020;6.738;2024-02-15T14:30:27;12.80;99.90
59075;DHT22;44860;53.020;6.738;2024-02-15T14:33:11;12.80;99.90
59075;DHT22;44860;53.020;6.738;2024-02-15T14:35:41;12.80;99.90
59075;DHT22;44860;53.020;6.738;2024-02-15T14:38:12;12.80;99.90
59075;DHT22;44860;53.020;6.738;2024-02-15T14:40:39;12.80;99.90
59075;DHT22;44860;53.020;6.738;2024-02-15T14:43:06;12.80;99.90
59075;DHT22;44860;53.020;6.738;2024-02-15T14:45:33;12.80;99.90
59075;DHT22;44860;53.020;6.738;2024-02-15T14:48:00;12.80;99.90
59075;DHT22;44860;53.020;6.738;2024-02-15T14:50:26;12.80;99.90
59075;DHT22;44860;53.020;6.738;2024-02-15T14:52:52;12.80;99.90
59075;DHT22;44860;53.020;6.738;2024-02-15T14:55:19;12.80;99.90
59075;DHT22;44860;53.020;6.738;2024-02-15T14:57:46;12.80;99.90
59075;DHT22;44860;53.020;6.738;2024-02-15T15:00:12;12.80;99.90
59075;DHT22;44860;53.020;6.738;2024-02-15T15:02:45;12.90;99.90
59075;DHT22;44860;53.020;6.738;2024-02-15T15:05:14;12.90;99.90
59075;DHT22;44860;53.020;6.738;2024-02-15T15:07:58;12.90;99.90
59075;DHT22;44860;53.020;6.738;2024-02-15T15:10:45;12.90;99.90
59075;DHT22;44860;53.020;6.738;2024-02-15T15:13:30;12.90;99.90
59075;DHT22;44860;53.020;6.738;2024-02-15T15:15:57;12.90;99.90
59075;DHT22;44860;53.020;6.738;2024-02-15T15:18:22;12.90;99.90
59075;DHT22;44860;53.020;6.738;2024-02-15T15:20:48;12.90;99.90
59075;DHT22;44860;53.020;6.738;2024-02-15T15:23:14;12.90;99.90
59075;DHT22;44860;53.020;6.738;2024-02-15T15:25:41;12.90;99.90
59075;DHT22;44860;53.020;6.738;2024-02-15T15:28:07;12.90;99.90
59075;DHT22;44860;53.020;6.738;2024-02-15T15:30:33;13.00;99.90
59075;DHT22;44860;53.020;6.738;2024-02-15T15:32:59;13.00;99.90
59075;DHT22;44860;53.020;6.738;2024-02-15T15:35:29;13.00;99.90
59075;DHT22;44860;53.020;6.738;2024-02-15T15:37:58;13.00;99.90
59075;DHT22;44860;53.020;6.738;2024-02-15T15:40:24;13.00;99.90
59075;DHT22;44860;53.020;6.738;2024-02-15T15:42:51;13.00;99.90
59075;DHT22;44860;53.020;6.738;2024-02-15T15:45:17;13.00;99.90
59075;DHT22;44860;53.020;6.738;2024-02-15T15:47:42;13.00;99.90
59075;DHT22;44860;53.020;6.738;2024-02-15T15:50:08;13.10;99.90
59075;DHT22;44860;53.020;6.738;2024-02-15T15:52:37;13.10;99.90